createdAt,value
2023-03-12T00:01:33.637Z,5.67
2023-03-12T00:04:04.499Z,5.90
2023-03-12T00:08:58.940Z,7.33
2023-03-12T00:11:26.480Z,7.67
2023-03-12T00:13:55.289Z,9.30
2023-03-12T00:16:22.701Z,7.97
2023-03-12T00:18:51.342Z,9.83
2023-03-12T00:21:18.308Z,8.80
2023-03-12T00:23:48.320Z,9.77
2023-03-12T00:26:15.829Z,7.90
2023-03-12T00:28:42.958Z,9.10
2023-03-12T00:31:18.785Z,8.27
2023-03-12T00:33:46.087Z,6.40
2023-03-12T00:36:12.776Z,8.03
2023-03-12T00:38:39.384Z,6.57
2023-03-12T00:41:07.245Z,6.60
2023-03-12T00:43:33.979Z,7.03
2023-03-12T00:46:01.238Z,5.97
2023-03-12T00:48:28.822Z,8.17
2023-03-12T00:50:55.621Z,7.37
2023-03-12T00:53:22.240Z,5.97
2023-03-12T00:55:49.954Z,5.37
2023-03-12T00:58:16.728Z,7.80
2023-03-12T01:00:43.385Z,7.80
2023-03-12T01:03:10.116Z,7.70
2023-03-12T01:05:38.145Z,6.80
2023-03-12T01:08:05.181Z,5.37
2023-03-12T01:10:31.748Z,6.63
2023-03-12T01:12:58.710Z,6.47
2023-03-12T01:15:25.638Z,6.80
2023-03-12T01:17:52.385Z,6.20
2023-03-12T01:20:19.274Z,7.13
2023-03-12T01:22:45.849Z,6.23
2023-03-12T01:25:12.805Z,5.90
2023-03-12T01:27:39.566Z,5.50
2023-03-12T01:30:07.156Z,6.33
2023-03-12T01:32:33.980Z,6.30
2023-03-12T01:35:01.025Z,5.60
2023-03-12T01:37:28.200Z,5.70
2023-03-12T01:39:54.825Z,5.13
2023-03-12T01:42:22.222Z,6.37
2023-03-12T01:44:54.181Z,4.87
2023-03-12T01:47:21.227Z,4.20
2023-03-12T01:49:50.113Z,6.53
2023-03-12T01:52:25.012Z,5.20
2023-03-12T01:55:07.186Z,4.60
2023-03-12T01:57:47.329Z,4.97
2023-03-12T02:00:19.380Z,4.78
2023-03-12T02:02:47.546Z,5.10
2023-03-12T02:05:25.701Z,5.20
2023-03-12T02:07:52.337Z,5.13
2023-03-12T02:10:19.084Z,5.67
2023-03-12T02:12:45.936Z,5.83
2023-03-12T02:15:12.708Z,6.57
2023-03-12T02:17:40.683Z,5.93
2023-03-12T02:20:20.653Z,5.50
2023-03-12T02:23:09.056Z,5.60
2023-03-12T02:25:49.624Z,5.10
2023-03-12T02:28:20.130Z,4.78
2023-03-12T02:30:51.134Z,5.55
2023-03-12T02:33:17.684Z,6.07
2023-03-12T02:35:47.633Z,4.73
2023-03-12T02:38:38.136Z,8.98
2023-03-12T02:41:27.504Z,5.53
2023-03-12T02:43:58.841Z,4.80
2023-03-12T02:46:25.675Z,5.87
2023-03-12T02:48:53.966Z,6.67
2023-03-12T02:51:20.827Z,5.80
2023-03-12T02:53:47.548Z,5.10
2023-03-12T02:56:14.169Z,5.83
2023-03-12T02:58:43.205Z,8.50
2023-03-12T03:01:09.803Z,7.10
2023-03-12T03:03:36.356Z,6.13
2023-03-12T03:06:03.281Z,6.87
2023-03-12T03:08:29.850Z,7.23
2023-03-12T03:10:56.412Z,8.27
2023-03-12T03:13:23.725Z,9.67
2023-03-12T03:15:50.359Z,9.53
2023-03-12T03:18:16.960Z,9.40
2023-03-12T03:20:44.998Z,9.83
2023-03-12T03:23:11.813Z,7.80
2023-03-12T03:25:38.426Z,7.97
2023-03-12T03:28:05.142Z,9.43
2023-03-12T03:30:32.517Z,7.87
2023-03-12T03:32:59.221Z,8.13
2023-03-12T03:35:25.860Z,9.27
2023-03-12T03:37:53.477Z,10.23
2023-03-12T03:40:20.774Z,8.83
2023-03-12T03:42:47.393Z,7.97
2023-03-12T03:45:13.993Z,7.60
2023-03-12T03:47:40.731Z,8.23
2023-03-12T03:50:07.898Z,9.03
2023-03-12T03:52:35.499Z,8.50
2023-03-12T03:55:02.210Z,9.10
2023-03-12T03:57:29.910Z,8.47
2023-03-12T04:00:01.516Z,7.63
2023-03-12T04:02:29.865Z,8.43
2023-03-12T04:04:59.569Z,7.60
2023-03-12T04:07:32.265Z,8.20
2023-03-12T04:09:58.942Z,8.33
2023-03-12T04:12:26.212Z,9.13
2023-03-12T04:14:53.225Z,8.63
2023-03-12T04:17:19.937Z,10.57
2023-03-12T04:19:50.331Z,8.00
2023-03-12T04:22:16.948Z,10.55
2023-03-12T04:24:44.556Z,9.10
2023-03-12T04:27:11.296Z,8.73
2023-03-12T04:29:39.489Z,11.23
2023-03-12T04:32:07.359Z,9.60
2023-03-12T04:34:34.382Z,9.43
2023-03-12T04:37:03.400Z,10.37
2023-03-12T04:39:29.976Z,10.13
2023-03-12T04:41:56.625Z,9.57
2023-03-12T04:44:23.371Z,9.73
2023-03-12T04:46:50.156Z,8.47
2023-03-12T04:49:16.745Z,10.00
2023-03-12T04:51:43.538Z,10.53
2023-03-12T04:54:10.179Z,11.03
2023-03-12T04:56:36.835Z,9.77
2023-03-12T04:59:07.098Z,9.43
2023-03-12T05:01:36.612Z,10.48
2023-03-12T05:04:04.121Z,9.37
2023-03-12T05:06:32.417Z,8.93
2023-03-12T05:08:59.278Z,10.50
2023-03-12T05:11:25.948Z,12.40
2023-03-12T05:13:52.814Z,14.10
2023-03-12T05:16:19.584Z,14.73
2023-03-12T05:18:47.364Z,16.33
2023-03-12T05:21:17.115Z,14.77
2023-03-12T05:23:44.260Z,13.03
2023-03-12T05:26:24.116Z,12.53
2023-03-12T05:28:50.911Z,11.10
2023-03-12T05:31:18.628Z,12.17
2023-03-12T05:33:45.772Z,12.40
2023-03-12T05:36:13.327Z,13.97
2023-03-12T05:38:40.175Z,10.20
2023-03-12T05:41:07.167Z,10.77
2023-03-12T05:43:36.856Z,11.20
2023-03-12T05:46:05.770Z,10.10
2023-03-12T05:48:32.611Z,8.27
2023-03-12T05:50:59.218Z,11.03
2023-03-12T05:53:26.069Z,8.03
2023-03-12T05:55:52.808Z,9.90
2023-03-12T05:58:19.469Z,10.83
2023-03-12T06:00:46.450Z,9.03
2023-03-12T06:03:13.786Z,8.97
2023-03-12T06:05:40.462Z,9.50
2023-03-12T06:08:07.807Z,8.30
2023-03-12T06:10:34.599Z,8.27
2023-03-12T06:13:02.229Z,9.70
2023-03-12T06:15:29.048Z,7.83
2023-03-12T06:17:56.656Z,7.77
2023-03-12T06:20:23.489Z,6.93
2023-03-12T06:22:51.228Z,9.83
2023-03-12T06:25:17.838Z,8.77
2023-03-12T06:27:44.557Z,9.40
2023-03-12T06:30:11.764Z,8.57
2023-03-12T06:32:38.703Z,8.93
2023-03-12T06:35:06.125Z,7.00
2023-03-12T06:37:32.858Z,8.37
2023-03-12T06:39:59.503Z,8.03
2023-03-12T06:42:26.676Z,7.17
2023-03-12T06:44:53.912Z,8.87
2023-03-12T06:47:20.602Z,7.60
2023-03-12T06:49:47.261Z,6.40
2023-03-12T06:52:13.956Z,6.63
2023-03-12T06:54:40.600Z,6.93
2023-03-12T06:57:07.156Z,7.33
2023-03-12T06:59:33.868Z,6.10
2023-03-12T07:02:00.663Z,7.27
2023-03-12T07:04:27.563Z,6.77
2023-03-12T07:06:56.188Z,7.03
2023-03-12T07:09:22.896Z,6.57
2023-03-12T07:11:49.557Z,6.67
2023-03-12T07:14:17.786Z,7.70
2023-03-12T07:16:44.325Z,8.37
2023-03-12T07:19:11.710Z,7.10
2023-03-12T07:21:38.383Z,6.40
2023-03-12T07:24:07.246Z,7.60
2023-03-12T07:26:35.577Z,9.40
2023-03-12T07:29:04.262Z,7.67
2023-03-12T07:31:31.376Z,7.73
2023-03-12T07:33:58.108Z,5.53
2023-03-12T07:36:25.218Z,11.27
2023-03-12T07:38:52.405Z,7.77
2023-03-12T07:41:19.054Z,6.30
2023-03-12T07:43:45.955Z,6.87
2023-03-12T07:46:12.969Z,5.53
2023-03-12T07:48:41.517Z,5.73
2023-03-12T07:51:10.848Z,7.73
2023-03-12T07:53:37.605Z,5.97
2023-03-12T07:56:04.550Z,8.83
2023-03-12T07:58:31.418Z,5.37
2023-03-12T08:00:58.305Z,6.63
2023-03-12T08:03:25.131Z,7.33
2023-03-12T08:06:00.446Z,6.40
2023-03-12T08:08:27.513Z,6.63
2023-03-12T08:10:54.285Z,7.67
2023-03-12T08:13:23.413Z,5.73
2023-03-12T08:15:51.722Z,4.70
2023-03-12T08:18:19.850Z,5.27
2023-03-12T08:20:50.432Z,5.10
2023-03-12T08:23:17.037Z,5.50
2023-03-12T08:25:48.524Z,4.90
2023-03-12T08:28:16.125Z,6.43
2023-03-12T08:30:49.841Z,8.90
2023-03-12T08:33:17.124Z,6.00
2023-03-12T08:35:44.583Z,4.60
2023-03-12T08:38:11.620Z,4.60
2023-03-12T08:40:38.431Z,4.80
2023-03-12T08:43:05.223Z,4.60
2023-03-12T08:45:32.705Z,6.00
2023-03-12T08:47:59.434Z,9.40
2023-03-12T08:50:29.367Z,7.87
2023-03-12T08:52:56.418Z,4.47
2023-03-12T08:55:23.215Z,4.60
2023-03-12T08:57:49.977Z,4.47
2023-03-12T09:00:18.099Z,4.80
2023-03-12T09:02:46.099Z,4.77
2023-03-12T09:05:13.605Z,6.47
2023-03-12T09:07:41.411Z,5.57
2023-03-12T09:10:08.730Z,6.03
2023-03-12T09:12:35.332Z,5.60
2023-03-12T09:15:03.842Z,5.20
2023-03-12T09:17:31.390Z,5.30
2023-03-12T09:19:58.098Z,4.57
2023-03-12T09:22:24.755Z,7.93
2023-03-12T09:24:52.205Z,5.13
2023-03-12T09:27:19.025Z,4.40
2023-03-12T09:29:58.835Z,5.30
2023-03-12T09:32:27.856Z,6.90
2023-03-12T09:34:54.644Z,12.90
2023-03-12T09:37:23.987Z,7.37
2023-03-12T09:39:51.533Z,7.82
2023-03-12T09:42:30.264Z,9.73
2023-03-12T09:45:00.281Z,5.93
2023-03-12T09:47:30.078Z,9.23
2023-03-12T09:50:34.847Z,7.07
2023-03-12T09:53:44.427Z,6.97
2023-03-12T09:56:17.509Z,8.10
2023-03-12T09:58:48.176Z,7.47
2023-03-12T10:01:26.491Z,8.27
2023-03-12T10:04:05.408Z,7.93
2023-03-12T10:07:01.694Z,6.83
2023-03-12T10:09:48.384Z,6.50
2023-03-12T10:12:22.041Z,6.77
2023-03-12T10:14:51.588Z,4.80
2023-03-12T10:17:21.098Z,4.40
2023-03-12T10:20:18.395Z,4.00
2023-03-12T10:23:10.556Z,4.63
2023-03-12T10:25:53.179Z,3.07
2023-03-12T10:28:36.100Z,3.80
2023-03-12T10:31:06.970Z,4.73
2023-03-12T10:33:44.770Z,7.40
2023-03-12T10:36:28.425Z,6.97
2023-03-12T10:38:55.200Z,10.97
2023-03-12T10:41:28.291Z,13.47
2023-03-12T10:44:08.128Z,8.97
2023-03-12T10:46:37.952Z,8.23
2023-03-12T10:49:23.551Z,14.82
2023-03-12T10:52:17.740Z,8.00
2023-03-12T10:54:50.360Z,8.07
2023-03-12T10:57:17.858Z,7.17
2023-03-12T10:59:47.741Z,7.47
2023-03-12T11:02:38.792Z,10.25
2023-03-12T11:05:28.249Z,7.93
2023-03-12T11:07:57.137Z,6.10
2023-03-12T11:10:38.004Z,5.27
2023-03-12T11:13:21.308Z,5.93
2023-03-12T11:15:48.639Z,6.80
2023-03-12T11:18:38.217Z,9.40
2023-03-12T11:21:10.715Z,5.73
2023-03-12T11:23:57.699Z,8.33
2023-03-12T11:26:53.796Z,4.83
2023-03-12T11:29:28.496Z,5.87
2023-03-12T11:32:01.688Z,5.30
2023-03-12T11:34:34.364Z,5.67
2023-03-12T11:37:05.364Z,7.00
2023-03-12T11:39:47.513Z,4.20
2023-03-12T11:42:40.044Z,5.63
2023-03-12T11:45:25.133Z,5.23
2023-03-12T11:48:03.602Z,6.50
2023-03-12T11:50:47.289Z,5.80
2023-03-12T11:53:20.326Z,5.83
2023-03-12T11:56:28.828Z,7.83
2023-03-12T11:59:14.222Z,6.73
2023-03-12T12:02:18.444Z,9.43
2023-03-12T12:05:22.796Z,8.10
2023-03-12T12:08:15.028Z,7.83
2023-03-12T12:10:57.728Z,5.50
2023-03-12T12:13:40.259Z,6.37
2023-03-12T12:16:16.149Z,6.20
2023-03-12T12:19:27.550Z,7.50
2023-03-12T12:22:18.926Z,4.63
2023-03-12T12:25:16.289Z,7.53
2023-03-12T12:28:15.880Z,6.33
2023-03-12T12:31:00.197Z,7.30
2023-03-12T12:33:35.783Z,3.97
2023-03-12T12:36:03.699Z,7.07
2023-03-12T12:38:35.690Z,5.60
2023-03-12T12:41:15.821Z,7.23
2023-03-12T12:43:47.969Z,4.10
2023-03-12T12:46:26.214Z,4.63
2023-03-12T12:49:23.232Z,5.00
2023-03-12T12:52:03.406Z,5.20
2023-03-12T12:54:46.740Z,7.03
2023-03-12T12:57:41.249Z,4.03
2023-03-12T13:00:26.336Z,4.37
2023-03-12T13:02:57.359Z,5.73
2023-03-12T13:05:40.962Z,7.90
2023-03-12T13:08:11.381Z,5.53
2023-03-12T13:13:26.234Z,4.03
2023-03-12T13:16:36.011Z,5.63
2023-03-12T13:19:22.779Z,5.07
2023-03-12T13:22:04.670Z,4.60
2023-03-12T13:24:33.802Z,4.87
2023-03-12T13:27:29.174Z,10.33
2023-03-12T13:29:57.630Z,6.13
2023-03-12T13:33:01.576Z,5.50
2023-03-12T13:35:37.171Z,6.23
2023-03-12T13:38:15.024Z,4.43
2023-03-12T13:41:01.470Z,3.80
2023-03-12T13:43:54.951Z,4.57
2023-03-12T13:46:30.846Z,4.73
2023-03-12T13:49:01.414Z,6.03
2023-03-12T13:51:31.961Z,5.47
2023-03-12T13:54:04.157Z,5.90
2023-03-12T13:56:33.862Z,3.93
2023-03-12T13:59:04.907Z,4.22
2023-03-12T14:01:52.018Z,4.33
2023-03-12T14:04:23.356Z,5.40
2023-03-12T14:07:12.818Z,4.60
2023-03-12T14:10:10.119Z,3.90
2023-03-12T14:12:43.736Z,5.53
2023-03-12T14:15:32.341Z,5.03
2023-03-12T14:18:04.383Z,3.60
2023-03-12T14:20:32.292Z,3.70
2023-03-12T14:23:05.429Z,5.50
2023-03-12T14:25:48.567Z,4.33
2023-03-12T14:28:24.946Z,3.33
2023-03-12T14:31:00.308Z,3.87
2023-03-12T14:33:33.808Z,3.03
2023-03-12T14:36:12.157Z,3.67
2023-03-12T14:38:45.173Z,3.23
2023-03-12T14:41:19.151Z,2.80
2023-03-12T14:43:46.594Z,3.03
2023-03-12T14:46:24.725Z,3.70
2023-03-12T14:48:55.006Z,2.70
2023-03-12T14:53:52.312Z,3.40
2023-03-12T14:56:33.086Z,2.70
2023-03-12T14:59:02.738Z,3.40
2023-03-12T15:01:37.106Z,4.00
2023-03-12T15:04:14.735Z,3.70
2023-03-12T15:06:47.273Z,3.30
2023-03-12T15:09:26.784Z,3.33
2023-03-12T15:12:01.708Z,4.85
2023-03-12T15:14:39.266Z,4.07
2023-03-12T15:17:07.814Z,4.03
2023-03-12T15:19:40.446Z,4.03
2023-03-12T15:22:14.347Z,5.13
2023-03-12T15:24:41.152Z,3.63
2023-03-12T15:27:22.157Z,5.13
2023-03-12T15:29:49.209Z,4.97
2023-03-12T15:32:20.454Z,5.07
2023-03-12T15:34:48.458Z,4.30
2023-03-12T15:37:41.078Z,5.03
2023-03-12T15:40:25.811Z,5.17
2023-03-12T15:42:57.534Z,6.10
2023-03-12T15:45:46.205Z,28.83
2023-03-12T15:48:33.661Z,7.33
2023-03-12T15:51:00.858Z,7.63
2023-03-12T15:53:33.740Z,12.53
2023-03-12T15:56:21.960Z,14.93
2023-03-12T15:59:00.121Z,8.90
2023-03-12T16:01:28.396Z,6.90
2023-03-12T16:03:55.593Z,7.07
2023-03-12T16:06:25.708Z,7.10
2023-03-12T16:08:59.762Z,7.82
2023-03-12T16:11:30.797Z,7.83
2023-03-12T16:14:21.534Z,8.03
2023-03-12T16:16:50.514Z,13.33
2023-03-12T16:19:23.192Z,7.10
2023-03-12T16:21:50.455Z,6.20
2023-03-12T16:24:17.121Z,4.90
2023-03-12T16:26:53.387Z,4.70
2023-03-12T16:29:21.257Z,5.57
2023-03-12T16:31:53.061Z,5.30
2023-03-12T16:34:20.110Z,5.27
2023-03-12T16:36:46.776Z,7.67
2023-03-12T16:39:13.433Z,5.63
2023-03-12T16:41:40.322Z,5.80
2023-03-12T16:44:09.664Z,6.40
2023-03-12T16:46:36.445Z,6.30
2023-03-12T16:49:04.236Z,7.50
2023-03-12T16:51:30.821Z,8.40
2023-03-12T16:54:09.803Z,7.23
2023-03-12T16:56:41.209Z,8.65
2023-03-12T16:59:22.001Z,11.43
2023-03-12T17:01:48.709Z,9.77
2023-03-12T17:04:15.382Z,7.23
2023-03-12T17:06:42.115Z,11.47
2023-03-12T17:09:09.037Z,8.20
2023-03-12T17:11:37.901Z,11.27
2023-03-12T17:14:19.051Z,8.07
2023-03-12T17:16:45.772Z,10.07
2023-03-12T17:19:12.579Z,9.43
2023-03-12T17:21:39.619Z,9.07
2023-03-12T17:24:06.647Z,11.80
2023-03-12T17:26:34.261Z,9.53
2023-03-12T17:29:06.058Z,10.97
2023-03-12T17:31:33.116Z,10.27
2023-03-12T17:34:00.130Z,12.17
2023-03-12T17:36:26.714Z,7.90
2023-03-12T17:38:53.414Z,9.67
2023-03-12T17:41:26.471Z,9.10
2023-03-12T17:43:55.063Z,7.97
2023-03-12T17:46:21.873Z,8.87
2023-03-12T17:48:48.525Z,10.07
2023-03-12T17:51:15.373Z,12.33
2023-03-12T17:53:42.636Z,9.53
2023-03-12T17:56:12.636Z,11.30
2023-03-12T17:58:39.441Z,8.00
2023-03-12T18:01:06.517Z,11.10
2023-03-12T18:03:33.235Z,8.43
2023-03-12T18:06:00.937Z,9.37
2023-03-12T18:08:27.778Z,9.47
2023-03-12T18:10:57.275Z,9.00
2023-03-12T18:13:24.040Z,8.17
2023-03-12T18:15:55.865Z,9.40
2023-03-12T18:18:23.843Z,9.27
2023-03-12T18:20:51.069Z,20.77
2023-03-12T18:23:19.044Z,19.47
2023-03-12T18:25:49.036Z,14.07
2023-03-12T18:28:22.555Z,17.88
2023-03-12T18:30:52.008Z,14.63
2023-03-12T18:33:18.678Z,7.07
2023-03-12T18:35:45.722Z,8.03
2023-03-12T18:38:12.556Z,8.53
2023-03-12T18:40:39.259Z,10.77
2023-03-12T18:43:06.017Z,8.43
2023-03-12T18:45:32.747Z,9.90
2023-03-12T18:47:59.365Z,36.00
2023-03-12T18:50:26.058Z,30.30
2023-03-12T18:52:52.742Z,25.73
2023-03-12T18:55:19.297Z,21.70
2023-03-12T18:57:48.074Z,20.30
2023-03-12T19:00:22.705Z,16.73
2023-03-12T19:02:49.545Z,14.43
2023-03-12T19:05:16.682Z,15.17
2023-03-12T19:07:43.729Z,10.47
2023-03-12T19:10:11.378Z,11.50
2023-03-12T19:12:50.793Z,12.47
2023-03-12T19:17:46.401Z,10.00
2023-03-12T19:20:13.258Z,11.07
2023-03-12T19:22:39.970Z,11.37
2023-03-12T19:25:06.772Z,14.03
2023-03-12T19:27:33.663Z,12.17
2023-03-12T19:30:00.486Z,13.87
2023-03-12T19:32:40.580Z,11.87
2023-03-12T19:35:13.364Z,12.20
2023-03-12T19:37:40.490Z,13.07
2023-03-12T19:40:07.749Z,17.03
2023-03-12T19:42:39.491Z,18.63
2023-03-12T19:45:06.753Z,15.40
2023-03-12T19:47:41.145Z,14.07
2023-03-12T19:50:09.395Z,14.33
2023-03-12T19:52:36.357Z,8.67
2023-03-12T19:55:05.413Z,9.90
2023-03-12T19:57:33.251Z,9.30
2023-03-12T19:59:59.783Z,8.43
2023-03-12T20:02:26.730Z,10.77
2023-03-12T20:04:53.494Z,9.67
2023-03-12T20:07:21.005Z,9.73
2023-03-12T20:09:49.769Z,11.13
2023-03-12T20:12:16.766Z,11.37
2023-03-12T20:14:43.408Z,11.33
2023-03-12T20:17:12.186Z,13.00
2023-03-12T20:19:39.287Z,10.87
2023-03-12T20:22:07.273Z,9.60
2023-03-12T20:24:34.622Z,8.70
2023-03-12T20:27:01.979Z,9.97
2023-03-12T20:29:29.557Z,10.50
2023-03-12T20:31:56.761Z,12.00
2023-03-12T20:34:26.392Z,10.03
2023-03-12T20:36:53.932Z,10.70
2023-03-12T20:39:21.331Z,7.67
2023-03-12T20:41:49.889Z,8.67
2023-03-12T20:44:22.951Z,9.73
2023-03-12T20:46:52.602Z,9.50
2023-03-12T20:49:24.766Z,8.73
2023-03-12T20:51:56.838Z,9.03
2023-03-12T20:54:24.054Z,9.00
2023-03-12T20:56:53.858Z,10.27
2023-03-12T20:59:20.822Z,11.73
2023-03-12T21:01:48.238Z,9.10
2023-03-12T21:04:15.022Z,8.40
2023-03-12T21:06:41.780Z,8.17
2023-03-12T21:09:08.569Z,8.37
2023-03-12T21:11:35.679Z,10.20
2023-03-12T21:14:02.766Z,8.37
2023-03-12T21:16:29.508Z,11.33
2023-03-12T21:18:59.200Z,10.53
2023-03-12T21:21:25.966Z,10.60
2023-03-12T21:23:52.710Z,9.10
2023-03-12T21:26:19.880Z,8.47
2023-03-12T21:28:46.720Z,7.07
2023-03-12T21:31:16.278Z,7.97
2023-03-12T21:33:43.560Z,9.85
2023-03-12T21:36:12.705Z,10.13
2023-03-12T21:38:40.471Z,10.03
2023-03-12T21:41:13.014Z,10.80
2023-03-12T21:43:40.779Z,11.03
2023-03-12T21:46:12.903Z,9.80
2023-03-12T21:48:40.631Z,11.20
2023-03-12T21:51:09.903Z,10.57
2023-03-12T21:53:41.983Z,13.47
2023-03-12T21:56:10.214Z,13.23
2023-03-12T21:58:37.070Z,13.57
2023-03-12T22:01:06.573Z,11.47
2023-03-12T22:03:33.738Z,8.23
2023-03-12T22:06:00.471Z,9.20
2023-03-12T22:08:27.134Z,10.13
2023-03-12T22:10:53.846Z,11.83
2023-03-12T22:13:20.760Z,9.77
2023-03-12T22:15:54.308Z,9.83
2023-03-12T22:18:21.120Z,10.63
2023-03-12T22:20:56.453Z,9.97
2023-03-12T22:23:24.095Z,10.27
2023-03-12T22:25:51.339Z,11.43
2023-03-12T22:28:19.242Z,22.27
2023-03-12T22:30:46.050Z,9.67
2023-03-12T22:33:13.533Z,9.70
2023-03-12T22:35:45.093Z,9.90
2023-03-12T22:38:12.114Z,9.77
2023-03-12T22:40:39.180Z,11.63
2023-03-12T22:43:05.878Z,10.60
2023-03-12T22:45:32.792Z,10.87
2023-03-12T22:47:59.593Z,13.90
2023-03-12T22:50:27.638Z,21.97
2023-03-12T22:52:54.388Z,11.30
2023-03-12T22:55:21.009Z,8.70
2023-03-12T22:57:48.647Z,10.30
2023-03-12T23:00:18.895Z,8.67
2023-03-12T23:02:45.712Z,8.52
2023-03-12T23:05:12.413Z,7.67
2023-03-12T23:07:39.107Z,8.60
2023-03-12T23:10:07.782Z,9.73
2023-03-12T23:12:34.560Z,5.53
2023-03-12T23:15:01.425Z,7.03
2023-03-12T23:17:27.991Z,5.83
2023-03-12T23:19:54.781Z,4.53
2023-03-12T23:22:21.355Z,6.37
2023-03-12T23:24:47.932Z,4.60
2023-03-12T23:27:14.640Z,6.00
2023-03-12T23:29:41.253Z,6.03
2023-03-12T23:32:07.956Z,4.73
2023-03-12T23:34:35.013Z,4.90
2023-03-12T23:37:01.776Z,5.77
2023-03-12T23:39:30.347Z,4.87
2023-03-12T23:41:57.856Z,5.40
2023-03-12T23:44:25.659Z,6.37
2023-03-12T23:46:52.237Z,6.27
2023-03-12T23:49:18.869Z,5.37
2023-03-12T23:51:45.839Z,4.63
2023-03-12T23:54:12.447Z,6.37
2023-03-12T23:56:41.902Z,6.37
2023-03-12T23:59:10.051Z,7.57
